sensor_id;sensor_type;location;lat;lon;timestamp;temperature;humidity
25732;DHT22;13585;50.864;4.406;2023-05-10T00:00:24;23.10;60.90
25732;DHT22;13585;50.864;4.406;2023-05-10T00:02:50;23.10;60.80
25732;DHT22;13585;50.864;4.406;2023-05-10T00:05:15;23.10;60.80
25732;DHT22;13585;50.864;4.406;2023-05-10T00:07:41;23.10;60.80
25732;DHT22;13585;50.864;4.406;2023-05-10T00:10:10;23.10;60.80
25732;DHT22;13585;50.864;4.406;2023-05-10T00:12:35;23.00;60.70
25732;DHT22;13585;50.864;4.406;2023-05-10T00:15:01;23.10;60.80
25732;DHT22;13585;50.864;4.406;2023-05-10T00:17:28;23.00;60.70
25732;DHT22;13585;50.864;4.406;2023-05-10T00:19:53;23.10;60.70
25732;DHT22;13585;50.864;4.406;2023-05-10T00:22:19;23.10;60.60
25732;DHT22;13585;50.864;4.406;2023-05-10T00:24:45;23.00;60.60
25732;DHT22;13585;50.864;4.406;2023-05-10T00:27:11;23.00;60.50
25732;DHT22;13585;50.864;4.406;2023-05-10T00:29:36;23.00;60.50
25732;DHT22;13585;50.864;4.406;2023-05-10T00:32:02;23.10;60.50
25732;DHT22;13585;50.864;4.406;2023-05-10T00:34:28;23.10;60.50
25732;DHT22;13585;50.864;4.406;2023-05-10T00:36:53;23.10;60.50
25732;DHT22;13585;50.864;4.406;2023-05-10T00:39:19;23.00;60.40
25732;DHT22;13585;50.864;4.406;2023-05-10T00:41:45;23.00;60.40
25732;DHT22;13585;50.864;4.406;2023-05-10T00:44:10;23.00;60.40
25732;DHT22;13585;50.864;4.406;2023-05-10T00:46:36;23.00;60.30
25732;DHT22;13585;50.864;4.406;2023-05-10T00:49:02;23.00;60.30
25732;DHT22;13585;50.864;4.406;2023-05-10T00:51:27;23.00;60.30
25732;DHT22;13585;50.864;4.406;2023-05-10T00:53:53;23.00;60.20
25732;DHT22;13585;50.864;4.406;2023-05-10T00:56:21;23.00;60.20
25732;DHT22;13585;50.864;4.406;2023-05-10T00:58:48;23.00;60.20
25732;DHT22;13585;50.864;4.406;2023-05-10T01:01:14;23.00;60.20
25732;DHT22;13585;50.864;4.406;2023-05-10T01:03:40;23.00;60.20
25732;DHT22;13585;50.864;4.406;2023-05-10T01:06:06;23.00;60.20
25732;DHT22;13585;50.864;4.406;2023-05-10T01:08:32;23.00;60.10
25732;DHT22;13585;50.864;4.406;2023-05-10T01:10:57;23.00;60.10
25732;DHT22;13585;50.864;4.406;2023-05-10T01:13:33;23.00;60.10
25732;DHT22;13585;50.864;4.406;2023-05-10T01:15:59;23.00;60.10
25732;DHT22;13585;50.864;4.406;2023-05-10T01:18:27;23.00;60.00
25732;DHT22;13585;50.864;4.406;2023-05-10T01:37:13;23.00;60.00
25732;DHT22;13585;50.864;4.406;2023-05-10T01:39:55;23.00;60.00
25732;DHT22;13585;50.864;4.406;2023-05-10T01:42:29;23.00;60.00
25732;DHT22;13585;50.864;4.406;2023-05-10T01:45:14;23.00;59.90
25732;DHT22;13585;50.864;4.406;2023-05-10T01:47:43;23.00;59.90
25732;DHT22;13585;50.864;4.406;2023-05-10T01:50:19;23.00;59.80
25732;DHT22;13585;50.864;4.406;2023-05-10T01:52:51;23.00;59.90
25732;DHT22;13585;50.864;4.406;2023-05-10T01:55:21;23.00;59.80
25732;DHT22;13585;50.864;4.406;2023-05-10T01:57:52;23.00;59.80
25732;DHT22;13585;50.864;4.406;2023-05-10T02:00:19;23.00;59.80
25732;DHT22;13585;50.864;4.406;2023-05-10T02:02:47;23.00;59.80
25732;DHT22;13585;50.864;4.406;2023-05-10T02:05:15;22.90;59.70
25732;DHT22;13585;50.864;4.406;2023-05-10T02:07:42;23.00;59.80
25732;DHT22;13585;50.864;4.406;2023-05-10T02:10:09;23.00;59.70
25732;DHT22;13585;50.864;4.406;2023-05-10T02:12:39;22.90;59.70
25732;DHT22;13585;50.864;4.406;2023-05-10T02:15:07;23.00;59.70
25732;DHT22;13585;50.864;4.406;2023-05-10T02:17:34;22.90;59.60
25732;DHT22;13585;50.864;4.406;2023-05-10T02:20:02;22.90;59.60
25732;DHT22;13585;50.864;4.406;2023-05-10T02:22:29;23.00;59.70
25732;DHT22;13585;50.864;4.406;2023-05-10T02:24:58;23.00;59.70
25732;DHT22;13585;50.864;4.406;2023-05-10T02:27:24;22.90;59.60
25732;DHT22;13585;50.864;4.406;2023-05-10T02:29:51;22.90;59.60
25732;DHT22;13585;50.864;4.406;2023-05-10T02:32:17;23.00;59.60
25732;DHT22;13585;50.864;4.406;2023-05-10T02:34:45;23.00;59.60
25732;DHT22;13585;50.864;4.406;2023-05-10T02:37:13;22.90;59.50
25732;DHT22;13585;50.864;4.406;2023-05-10T02:39:40;23.00;59.60
25732;DHT22;13585;50.864;4.406;2023-05-10T02:42:11;22.90;59.50
25732;DHT22;13585;50.864;4.406;2023-05-10T02:44:41;22.90;59.50
25732;DHT22;13585;50.864;4.406;2023-05-10T02:47:08;23.00;59.50
25732;DHT22;13585;50.864;4.406;2023-05-10T02:49:34;22.90;59.50
25732;DHT22;13585;50.864;4.406;2023-05-10T02:52:01;23.00;59.50
25732;DHT22;13585;50.864;4.406;2023-05-10T02:54:33;22.90;59.40
25732;DHT22;13585;50.864;4.406;2023-05-10T02:57:01;22.90;59.40
25732;DHT22;13585;50.864;4.406;2023-05-10T02:59:29;22.90;59.40
25732;DHT22;13585;50.864;4.406;2023-05-10T03:01:54;22.90;59.40
25732;DHT22;13585;50.864;4.406;2023-05-10T03:04:20;22.90;59.40
25732;DHT22;13585;50.864;4.406;2023-05-10T03:06:46;22.90;59.40
25732;DHT22;13585;50.864;4.406;2023-05-10T03:09:12;22.90;59.30
25732;DHT22;13585;50.864;4.406;2023-05-10T03:12:04;22.90;59.30
25732;DHT22;13585;50.864;4.406;2023-05-10T03:15:02;22.90;59.40
25732;DHT22;13585;50.864;4.406;2023-05-10T03:17:35;22.90;59.30
25732;DHT22;13585;50.864;4.406;2023-05-10T03:20:06;22.90;59.20
25732;DHT22;13585;50.864;4.406;2023-05-10T03:25:05;22.90;59.30
25732;DHT22;13585;50.864;4.406;2023-05-10T03:27:32;22.90;59.30
25732;DHT22;13585;50.864;4.406;2023-05-10T03:29:59;22.90;59.30
25732;DHT22;13585;50.864;4.406;2023-05-10T03:32:29;22.90;59.20
25732;DHT22;13585;50.864;4.406;2023-05-10T03:34:55;22.90;59.20
25732;DHT22;13585;50.864;4.406;2023-05-10T03:37:21;22.90;59.80
25732;DHT22;13585;50.864;4.406;2023-05-10T03:39:46;22.90;59.20
25732;DHT22;13585;50.864;4.406;2023-05-10T03:42:12;22.90;59.20
25732;DHT22;13585;50.864;4.406;2023-05-10T03:44:39;22.90;59.10
25732;DHT22;13585;50.864;4.406;2023-05-10T03:47:05;22.90;59.10
25732;DHT22;13585;50.864;4.406;2023-05-10T03:49:30;22.90;59.10
25732;DHT22;13585;50.864;4.406;2023-05-10T03:51:56;22.90;59.10
25732;DHT22;13585;50.864;4.406;2023-05-10T03:54:21;22.90;59.10
25732;DHT22;13585;50.864;4.406;2023-05-10T03:56:47;22.90;59.10
25732;DHT22;13585;50.864;4.406;2023-05-10T03:59:13;22.90;59.10
25732;DHT22;13585;50.864;4.406;2023-05-10T04:01:39;22.90;59.00
25732;DHT22;13585;50.864;4.406;2023-05-10T04:04:04;22.90;59.10
25732;DHT22;13585;50.864;4.406;2023-05-10T04:06:30;22.90;59.00
25732;DHT22;13585;50.864;4.406;2023-05-10T04:08:56;22.90;59.00
25732;DHT22;13585;50.864;4.406;2023-05-10T04:11:25;22.90;59.00
25732;DHT22;13585;50.864;4.406;2023-05-10T04:13:50;22.90;59.00
25732;DHT22;13585;50.864;4.406;2023-05-10T04:16:16;22.90;59.00
25732;DHT22;13585;50.864;4.406;2023-05-10T04:18:41;22.90;59.00
25732;DHT22;13585;50.864;4.406;2023-05-10T04:21:13;22.90;58.90
25732;DHT22;13585;50.864;4.406;2023-05-10T04:23:40;22.80;58.90
25732;DHT22;13585;50.864;4.406;2023-05-10T04:26:06;22.90;59.00
25732;DHT22;13585;50.864;4.406;2023-05-10T04:28:31;22.90;58.90
25732;DHT22;13585;50.864;4.406;2023-05-10T04:31:07;22.90;58.90
25732;DHT22;13585;50.864;4.406;2023-05-10T04:33:33;22.90;59.00
25732;DHT22;13585;50.864;4.406;2023-05-10T04:36:00;22.90;58.90
25732;DHT22;13585;50.864;4.406;2023-05-10T04:38:26;22.90;58.90
25732;DHT22;13585;50.864;4.406;2023-05-10T04:40:52;22.80;58.90
25732;DHT22;13585;50.864;4.406;2023-05-10T04:43:18;22.80;58.90
25732;DHT22;13585;50.864;4.406;2023-05-10T04:45:43;22.80;58.80
25732;DHT22;13585;50.864;4.406;2023-05-10T04:48:09;22.90;58.90
25732;DHT22;13585;50.864;4.406;2023-05-10T04:50:35;22.80;58.80
25732;DHT22;13585;50.864;4.406;2023-05-10T04:53:00;22.90;58.90
25732;DHT22;13585;50.864;4.406;2023-05-10T04:55:26;22.90;58.90
25732;DHT22;13585;50.864;4.406;2023-05-10T04:57:52;22.80;58.80
25732;DHT22;13585;50.864;4.406;2023-05-10T05:00:18;22.80;58.80
25732;DHT22;13585;50.864;4.406;2023-05-10T05:02:45;22.90;58.90
25732;DHT22;13585;50.864;4.406;2023-05-10T05:05:11;22.80;59.40
25732;DHT22;13585;50.864;4.406;2023-05-10T05:07:37;22.80;58.80
25732;DHT22;13585;50.864;4.406;2023-05-10T05:10:07;22.80;58.80
25732;DHT22;13585;50.864;4.406;2023-05-10T05:12:34;22.80;58.80
25732;DHT22;13585;50.864;4.406;2023-05-10T05:15:00;22.80;59.40
25732;DHT22;13585;50.864;4.406;2023-05-10T05:17:25;22.80;58.80
25732;DHT22;13585;50.864;4.406;2023-05-10T05:19:51;22.80;58.70
25732;DHT22;13585;50.864;4.406;2023-05-10T05:22:18;22.80;58.80
25732;DHT22;13585;50.864;4.406;2023-05-10T05:24:55;22.80;58.80
25732;DHT22;13585;50.864;4.406;2023-05-10T05:27:21;22.80;58.80
25732;DHT22;13585;50.864;4.406;2023-05-10T05:29:50;22.80;58.80
25732;DHT22;13585;50.864;4.406;2023-05-10T05:32:15;22.80;58.80
25732;DHT22;13585;50.864;4.406;2023-05-10T05:34:41;22.80;58.90
25732;DHT22;13585;50.864;4.406;2023-05-10T05:37:07;22.80;58.90
25732;DHT22;13585;50.864;4.406;2023-05-10T05:39:32;22.80;58.90
25732;DHT22;13585;50.864;4.406;2023-05-10T05:41:58;22.70;58.90
25732;DHT22;13585;50.864;4.406;2023-05-10T05:44:23;22.70;59.00
25732;DHT22;13585;50.864;4.406;2023-05-10T05:46:49;22.80;59.00
25732;DHT22;13585;50.864;4.406;2023-05-10T05:49:15;22.80;59.00
25732;DHT22;13585;50.864;4.406;2023-05-10T05:51:40;22.80;59.10
25732;DHT22;13585;50.864;4.406;2023-05-10T05:54:06;22.80;59.10
25732;DHT22;13585;50.864;4.406;2023-05-10T05:56:31;22.80;59.10
25732;DHT22;13585;50.864;4.406;2023-05-10T05:58:57;22.70;59.10
25732;DHT22;13585;50.864;4.406;2023-05-10T06:01:23;22.80;59.10
25732;DHT22;13585;50.864;4.406;2023-05-10T06:03:48;22.80;59.80
25732;DHT22;13585;50.864;4.406;2023-05-10T06:06:14;22.80;59.10
25732;DHT22;13585;50.864;4.406;2023-05-10T06:08:39;22.80;59.00
25732;DHT22;13585;50.864;4.406;2023-05-10T06:11:05;22.80;59.10
25732;DHT22;13585;50.864;4.406;2023-05-10T06:13:31;22.80;59.10
25732;DHT22;13585;50.864;4.406;2023-05-10T06:15:58;22.80;59.20
25732;DHT22;13585;50.864;4.406;2023-05-10T06:18:24;22.70;59.20
25732;DHT22;13585;50.864;4.406;2023-05-10T06:20:50;22.80;59.20
25732;DHT22;13585;50.864;4.406;2023-05-10T06:23:16;22.70;59.20
25732;DHT22;13585;50.864;4.406;2023-05-10T06:25:42;22.70;59.20
25732;DHT22;13585;50.864;4.406;2023-05-10T06:28:08;22.80;59.20
25732;DHT22;13585;50.864;4.406;2023-05-10T06:30:35;22.70;59.20
25732;DHT22;13585;50.864;4.406;2023-05-10T06:33:01;22.80;59.20
25732;DHT22;13585;50.864;4.406;2023-05-10T06:35:26;22.80;59.20
25732;DHT22;13585;50.864;4.406;2023-05-10T06:37:52;22.80;59.20
25732;DHT22;13585;50.864;4.406;2023-05-10T06:40:18;22.80;59.20
25732;DHT22;13585;50.864;4.406;2023-05-10T06:42:43;22.70;59.10
25732;DHT22;13585;50.864;4.406;2023-05-10T06:45:10;22.80;59.20
25732;DHT22;13585;50.864;4.406;2023-05-10T06:47:36;22.70;59.10
25732;DHT22;13585;50.864;4.406;2023-05-10T06:50:02;22.70;59.10
25732;DHT22;13585;50.864;4.406;2023-05-10T06:52:28;22.80;59.10
25732;DHT22;13585;50.864;4.406;2023-05-10T06:54:54;22.80;59.10
25732;DHT22;13585;50.864;4.406;2023-05-10T06:57:19;22.80;59.10
25732;DHT22;13585;50.864;4.406;2023-05-10T06:59:46;22.70;59.10
25732;DHT22;13585;50.864;4.406;2023-05-10T07:02:11;22.70;59.10
25732;DHT22;13585;50.864;4.406;2023-05-10T07:04:37;22.70;59.00
25732;DHT22;13585;50.864;4.406;2023-05-10T07:07:03;22.70;59.10
25732;DHT22;13585;50.864;4.406;2023-05-10T07:09:28;22.70;59.10
25732;DHT22;13585;50.864;4.406;2023-05-10T07:11:54;22.70;59.00
25732;DHT22;13585;50.864;4.406;2023-05-10T07:14:20;22.70;59.00
25732;DHT22;13585;50.864;4.406;2023-05-10T07:16:45;22.70;59.00
25732;DHT22;13585;50.864;4.406;2023-05-10T07:19:11;22.70;59.00
25732;DHT22;13585;50.864;4.406;2023-05-10T07:21:36;22.70;59.00
25732;DHT22;13585;50.864;4.406;2023-05-10T07:24:02;22.70;59.00
25732;DHT22;13585;50.864;4.406;2023-05-10T07:26:28;22.70;59.00
25732;DHT22;13585;50.864;4.406;2023-05-10T07:28:54;22.70;59.60
25732;DHT22;13585;50.864;4.406;2023-05-10T07:31:19;22.70;59.00
25732;DHT22;13585;50.864;4.406;2023-05-10T07:33:45;22.70;59.00
25732;DHT22;13585;50.864;4.406;2023-05-10T07:36:11;22.70;59.00
25732;DHT22;13585;50.864;4.406;2023-05-10T07:38:37;22.70;59.00
25732;DHT22;13585;50.864;4.406;2023-05-10T07:41:02;22.70;59.00
25732;DHT22;13585;50.864;4.406;2023-05-10T07:43:28;22.70;59.00
25732;DHT22;13585;50.864;4.406;2023-05-10T07:45:53;22.70;59.00
25732;DHT22;13585;50.864;4.406;2023-05-10T07:48:19;22.70;58.90
25732;DHT22;13585;50.864;4.406;2023-05-10T07:50:45;22.70;58.90
25732;DHT22;13585;50.864;4.406;2023-05-10T07:53:10;22.70;59.00
25732;DHT22;13585;50.864;4.406;2023-05-10T07:55:36;22.70;58.90
25732;DHT22;13585;50.864;4.406;2023-05-10T07:58:01;22.70;58.90
25732;DHT22;13585;50.864;4.406;2023-05-10T08:00:27;22.70;58.90
25732;DHT22;13585;50.864;4.406;2023-05-10T08:02:53;22.70;58.90
25732;DHT22;13585;50.864;4.406;2023-05-10T08:05:18;22.70;58.90
25732;DHT22;13585;50.864;4.406;2023-05-10T08:07:44;22.70;58.90
25732;DHT22;13585;50.864;4.406;2023-05-10T08:10:10;22.70;58.90
25732;DHT22;13585;50.864;4.406;2023-05-10T08:12:38;22.70;58.90
25732;DHT22;13585;50.864;4.406;2023-05-10T08:15:04;22.70;58.90
25732;DHT22;13585;50.864;4.406;2023-05-10T08:17:30;22.70;58.90
25732;DHT22;13585;50.864;4.406;2023-05-10T08:19:55;22.70;58.90
25732;DHT22;13585;50.864;4.406;2023-05-10T08:22:21;22.70;58.90
25732;DHT22;13585;50.864;4.406;2023-05-10T08:24:47;22.70;59.00
25732;DHT22;13585;50.864;4.406;2023-05-10T08:27:12;22.70;59.00
25732;DHT22;13585;50.864;4.406;2023-05-10T08:29:38;22.70;59.00
25732;DHT22;13585;50.864;4.406;2023-05-10T08:32:03;22.70;59.00
25732;DHT22;13585;50.864;4.406;2023-05-10T08:34:29;22.70;59.00
25732;DHT22;13585;50.864;4.406;2023-05-10T08:36:56;22.70;59.10
25732;DHT22;13585;50.864;4.406;2023-05-10T08:39:22;22.60;59.00
25732;DHT22;13585;50.864;4.406;2023-05-10T08:41:51;22.60;59.70
25732;DHT22;13585;50.864;4.406;2023-05-10T08:44:18;22.60;59.30
25732;DHT22;13585;50.864;4.406;2023-05-10T08:46:46;22.60;59.10
25732;DHT22;13585;50.864;4.406;2023-05-10T08:49:17;22.60;59.20
25732;DHT22;13585;50.864;4.406;2023-05-10T08:51:51;22.60;59.20
25732;DHT22;13585;50.864;4.406;2023-05-10T08:54:17;22.60;59.20
25732;DHT22;13585;50.864;4.406;2023-05-10T08:56:43;22.60;59.20
25732;DHT22;13585;50.864;4.406;2023-05-10T08:59:08;22.60;59.20
25732;DHT22;13585;50.864;4.406;2023-05-10T09:01:36;22.60;59.20
25732;DHT22;13585;50.864;4.406;2023-05-10T09:04:02;22.60;59.30
25732;DHT22;13585;50.864;4.406;2023-05-10T09:06:28;22.60;59.30
25732;DHT22;13585;50.864;4.406;2023-05-10T09:08:54;22.60;59.30
25732;DHT22;13585;50.864;4.406;2023-05-10T09:11:21;22.60;59.30
25732;DHT22;13585;50.864;4.406;2023-05-10T09:13:48;22.60;59.30
25732;DHT22;13585;50.864;4.406;2023-05-10T09:16:16;22.60;59.30
25732;DHT22;13585;50.864;4.406;2023-05-10T09:18:41;22.60;59.30
25732;DHT22;13585;50.864;4.406;2023-05-10T09:21:07;22.60;59.30
25732;DHT22;13585;50.864;4.406;2023-05-10T09:23:33;22.60;59.30
25732;DHT22;13585;50.864;4.406;2023-05-10T09:26:05;22.60;59.30
25732;DHT22;13585;50.864;4.406;2023-05-10T09:28:34;22.60;59.30
25732;DHT22;13585;50.864;4.406;2023-05-10T09:31:15;22.60;59.30
25732;DHT22;13585;50.864;4.406;2023-05-10T09:33:44;22.60;59.30
25732;DHT22;13585;50.864;4.406;2023-05-10T09:36:11;22.50;59.20
25732;DHT22;13585;50.864;4.406;2023-05-10T09:38:47;22.60;59.30
25732;DHT22;13585;50.864;4.406;2023-05-10T09:41:20;22.60;59.30
25732;DHT22;13585;50.864;4.406;2023-05-10T09:43:47;22.60;59.30
25732;DHT22;13585;50.864;4.406;2023-05-10T09:46:13;22.60;59.30
25732;DHT22;13585;50.864;4.406;2023-05-10T09:48:45;22.60;59.30
25732;DHT22;13585;50.864;4.406;2023-05-10T09:51:21;22.60;59.30
25732;DHT22;13585;50.864;4.406;2023-05-10T09:53:47;22.50;59.30
25732;DHT22;13585;50.864;4.406;2023-05-10T09:56:39;22.60;59.30
25732;DHT22;13585;50.864;4.406;2023-05-10T09:59:06;22.50;59.30
25732;DHT22;13585;50.864;4.406;2023-05-10T10:01:32;22.60;59.10
25732;DHT22;13585;50.864;4.406;2023-05-10T10:03:58;22.60;59.00
25732;DHT22;13585;50.864;4.406;2023-05-10T10:06:24;22.60;59.20
25732;DHT22;13585;50.864;4.406;2023-05-10T10:08:51;22.60;59.20
25732;DHT22;13585;50.864;4.406;2023-05-10T10:11:17;22.50;59.30
25732;DHT22;13585;50.864;4.406;2023-05-10T10:13:43;22.60;59.30
25732;DHT22;13585;50.864;4.406;2023-05-10T10:16:09;22.60;59.30
25732;DHT22;13585;50.864;4.406;2023-05-10T10:18:36;22.50;59.30
25732;DHT22;13585;50.864;4.406;2023-05-10T10:21:06;22.50;59.30
25732;DHT22;13585;50.864;4.406;2023-05-10T10:23:32;22.60;59.30
25732;DHT22;13585;50.864;4.406;2023-05-10T10:25:58;22.50;59.30
25732;DHT22;13585;50.864;4.406;2023-05-10T10:31:34;22.50;59.40
25732;DHT22;13585;50.864;4.406;2023-05-10T10:34:06;22.50;59.40
25732;DHT22;13585;50.864;4.406;2023-05-10T10:36:39;22.50;59.30
25732;DHT22;13585;50.864;4.406;2023-05-10T10:39:09;22.50;59.30
25732;DHT22;13585;50.864;4.406;2023-05-10T10:41:39;22.50;59.30
25732;DHT22;13585;50.864;4.406;2023-05-10T10:47:20;22.50;59.40
25732;DHT22;13585;50.864;4.406;2023-05-10T10:50:03;22.50;59.40
25732;DHT22;13585;50.864;4.406;2023-05-10T10:52:37;22.50;59.40
25732;DHT22;13585;50.864;4.406;2023-05-10T10:55:13;22.40;59.40
25732;DHT22;13585;50.864;4.406;2023-05-10T10:57:44;22.50;59.40
25732;DHT22;13585;50.864;4.406;2023-05-10T11:00:29;22.50;59.40
25732;DHT22;13585;50.864;4.406;2023-05-10T11:03:12;22.50;59.50
25732;DHT22;13585;50.864;4.406;2023-05-10T11:05:53;22.50;59.50
25732;DHT22;13585;50.864;4.406;2023-05-10T11:08:27;22.50;59.40
25732;DHT22;13585;50.864;4.406;2023-05-10T11:13:41;22.50;59.60
25732;DHT22;13585;50.864;4.406;2023-05-10T11:16:23;22.50;59.50
25732;DHT22;13585;50.864;4.406;2023-05-10T11:19:01;22.50;59.50
25732;DHT22;13585;50.864;4.406;2023-05-10T11:21:28;22.50;59.50
25732;DHT22;13585;50.864;4.406;2023-05-10T11:23:55;22.50;59.50
25732;DHT22;13585;50.864;4.406;2023-05-10T11:26:40;22.50;59.50
25732;DHT22;13585;50.864;4.406;2023-05-10T11:29:06;22.50;59.50
25732;DHT22;13585;50.864;4.406;2023-05-10T11:31:34;22.50;59.70
25732;DHT22;13585;50.864;4.406;2023-05-10T11:34:00;22.50;59.40
25732;DHT22;13585;50.864;4.406;2023-05-10T11:36:33;22.50;59.50
25732;DHT22;13585;50.864;4.406;2023-05-10T11:38:59;22.50;59.50
25732;DHT22;13585;50.864;4.406;2023-05-10T11:41:27;22.50;59.50
25732;DHT22;13585;50.864;4.406;2023-05-10T11:43:54;22.50;59.50
25732;DHT22;13585;50.864;4.406;2023-05-10T11:46:24;22.50;59.50
25732;DHT22;13585;50.864;4.406;2023-05-10T11:48:51;22.40;59.50
25732;DHT22;13585;50.864;4.406;2023-05-10T11:51:23;22.40;59.50
25732;DHT22;13585;50.864;4.406;2023-05-10T11:53:53;22.40;59.50
25732;DHT22;13585;50.864;4.406;2023-05-10T11:56:19;22.40;59.40
25732;DHT22;13585;50.864;4.406;2023-05-10T11:58:54;22.40;59.50
25732;DHT22;13585;50.864;4.406;2023-05-10T12:01:21;22.40;59.50
25732;DHT22;13585;50.864;4.406;2023-05-10T12:03:48;22.50;59.50
25732;DHT22;13585;50.864;4.406;2023-05-10T12:06:14;22.40;59.50
25732;DHT22;13585;50.864;4.406;2023-05-10T12:08:45;22.40;59.50
25732;DHT22;13585;50.864;4.406;2023-05-10T12:11:12;22.40;59.50
25732;DHT22;13585;50.864;4.406;2023-05-10T12:13:40;22.40;59.50
25732;DHT22;13585;50.864;4.406;2023-05-10T12:16:20;22.40;59.50
25732;DHT22;13585;50.864;4.406;2023-05-10T12:18:49;22.40;59.60
25732;DHT22;13585;50.864;4.406;2023-05-10T12:21:16;22.40;59.50
25732;DHT22;13585;50.864;4.406;2023-05-10T12:23:42;22.40;59.50
25732;DHT22;13585;50.864;4.406;2023-05-10T12:26:10;22.40;59.60
25732;DHT22;13585;50.864;4.406;2023-05-10T12:28:37;22.40;59.60
25732;DHT22;13585;50.864;4.406;2023-05-10T12:31:03;22.40;59.60
25732;DHT22;13585;50.864;4.406;2023-05-10T12:33:44;22.50;59.60
25732;DHT22;13585;50.864;4.406;2023-05-10T12:36:14;22.40;59.70
25732;DHT22;13585;50.864;4.406;2023-05-10T12:38:44;22.40;59.60
25732;DHT22;13585;50.864;4.406;2023-05-10T12:41:15;22.40;59.60
25732;DHT22;13585;50.864;4.406;2023-05-10T12:43:41;22.40;59.70
25732;DHT22;13585;50.864;4.406;2023-05-10T12:46:08;22.40;59.70
25732;DHT22;13585;50.864;4.406;2023-05-10T12:48:35;22.40;59.70
25732;DHT22;13585;50.864;4.406;2023-05-10T12:51:02;22.40;59.80
25732;DHT22;13585;50.864;4.406;2023-05-10T12:53:28;22.40;59.80
25732;DHT22;13585;50.864;4.406;2023-05-10T12:55:53;22.40;59.80
25732;DHT22;13585;50.864;4.406;2023-05-10T12:58:19;22.40;59.90
25732;DHT22;13585;50.864;4.406;2023-05-10T13:00:45;22.40;59.90
25732;DHT22;13585;50.864;4.406;2023-05-10T13:03:11;22.40;59.90
25732;DHT22;13585;50.864;4.406;2023-05-10T13:05:38;22.40;60.00
25732;DHT22;13585;50.864;4.406;2023-05-10T13:08:04;22.40;60.00
25732;DHT22;13585;50.864;4.406;2023-05-10T13:10:30;22.40;60.00
25732;DHT22;13585;50.864;4.406;2023-05-10T13:12:57;22.50;60.10
25732;DHT22;13585;50.864;4.406;2023-05-10T13:15:23;22.50;60.20
25732;DHT22;13585;50.864;4.406;2023-05-10T13:17:49;22.40;60.10
25732;DHT22;13585;50.864;4.406;2023-05-10T13:20:14;22.40;60.20
25732;DHT22;13585;50.864;4.406;2023-05-10T13:22:42;22.40;60.20
25732;DHT22;13585;50.864;4.406;2023-05-10T13:25:08;22.40;60.20
25732;DHT22;13585;50.864;4.406;2023-05-10T13:27:34;22.40;60.20
25732;DHT22;13585;50.864;4.406;2023-05-10T13:30:01;22.40;60.30
25732;DHT22;13585;50.864;4.406;2023-05-10T13:32:28;22.50;60.40
25732;DHT22;13585;50.864;4.406;2023-05-10T13:34:54;22.40;60.30
25732;DHT22;13585;50.864;4.406;2023-05-10T13:37:20;22.40;60.40
25732;DHT22;13585;50.864;4.406;2023-05-10T13:39:46;22.50;60.50
25732;DHT22;13585;50.864;4.406;2023-05-10T13:42:12;22.40;60.40
25732;DHT22;13585;50.864;4.406;2023-05-10T13:44:38;22.40;60.40
25732;DHT22;13585;50.864;4.406;2023-05-10T13:47:04;22.50;60.60
25732;DHT22;13585;50.864;4.406;2023-05-10T13:49:30;22.40;60.50
25732;DHT22;13585;50.864;4.406;2023-05-10T13:51:55;22.50;60.60
25732;DHT22;13585;50.864;4.406;2023-05-10T13:54:21;22.50;60.60
25732;DHT22;13585;50.864;4.406;2023-05-10T13:56:47;22.40;60.60
25732;DHT22;13585;50.864;4.406;2023-05-10T13:59:14;22.40;60.60
25732;DHT22;13585;50.864;4.406;2023-05-10T14:01:40;22.40;60.60
25732;DHT22;13585;50.864;4.406;2023-05-10T14:04:06;22.50;60.70
25732;DHT22;13585;50.864;4.406;2023-05-10T14:06:35;22.40;60.70
25732;DHT22;13585;50.864;4.406;2023-05-10T14:09:02;22.50;60.70
25732;DHT22;13585;50.864;4.406;2023-05-10T14:11:27;22.40;60.70
25732;DHT22;13585;50.864;4.406;2023-05-10T14:13:53;22.40;60.70
25732;DHT22;13585;50.864;4.406;2023-05-10T14:16:19;22.50;60.70
25732;DHT22;13585;50.864;4.406;2023-05-10T14:18:45;22.40;60.70
25732;DHT22;13585;50.864;4.406;2023-05-10T14:21:11;22.40;60.70
25732;DHT22;13585;50.864;4.406;2023-05-10T14:23:37;22.40;60.70
25732;DHT22;13585;50.864;4.406;2023-05-10T14:26:02;22.40;60.70
25732;DHT22;13585;50.864;4.406;2023-05-10T14:28:28;22.50;60.80
25732;DHT22;13585;50.864;4.406;2023-05-10T14:30:54;22.40;60.70
25732;DHT22;13585;50.864;4.406;2023-05-10T14:33:19;22.50;60.80
25732;DHT22;13585;50.864;4.406;2023-05-10T14:35:46;22.50;60.80
25732;DHT22;13585;50.864;4.406;2023-05-10T14:38:12;22.40;60.70
25732;DHT22;13585;50.864;4.406;2023-05-10T14:40:38;22.50;60.80
25732;DHT22;13585;50.864;4.406;2023-05-10T14:43:04;22.50;60.80
25732;DHT22;13585;50.864;4.406;2023-05-10T14:45:30;22.50;60.80
25732;DHT22;13585;50.864;4.406;2023-05-10T14:47:57;22.40;60.80
25732;DHT22;13585;50.864;4.406;2023-05-10T14:50:23;22.50;60.80
25732;DHT22;13585;50.864;4.406;2023-05-10T14:52:49;22.40;60.90
25732;DHT22;13585;50.864;4.406;2023-05-10T14:55:15;22.40;60.80
25732;DHT22;13585;50.864;4.406;2023-05-10T14:57:41;22.50;60.90
25732;DHT22;13585;50.864;4.406;2023-05-10T15:00:07;22.50;60.90
25732;DHT22;13585;50.864;4.406;2023-05-10T15:02:33;22.40;60.80
25732;DHT22;13585;50.864;4.406;2023-05-10T15:04:59;22.40;60.80
25732;DHT22;13585;50.864;4.406;2023-05-10T15:07:24;22.50;60.80
25732;DHT22;13585;50.864;4.406;2023-05-10T15:09:50;22.40;60.70
25732;DHT22;13585;50.864;4.406;2023-05-10T15:12:17;22.50;60.80
25732;DHT22;13585;50.864;4.406;2023-05-10T15:14:43;22.50;60.80
25732;DHT22;13585;50.864;4.406;2023-05-10T15:17:08;22.50;60.80
25732;DHT22;13585;50.864;4.406;2023-05-10T15:19:35;22.50;60.80
25732;DHT22;13585;50.864;4.406;2023-05-10T15:22:01;22.40;60.70
25732;DHT22;13585;50.864;4.406;2023-05-10T15:24:28;22.50;60.80
25732;DHT22;13585;50.864;4.406;2023-05-10T15:26:53;22.50;60.70
25732;DHT22;13585;50.864;4.406;2023-05-10T15:29:19;22.40;60.70
25732;DHT22;13585;50.864;4.406;2023-05-10T15:31:46;22.50;60.70
25732;DHT22;13585;50.864;4.406;2023-05-10T15:34:13;22.50;60.70
25732;DHT22;13585;50.864;4.406;2023-05-10T15:36:39;22.50;60.70
25732;DHT22;13585;50.864;4.406;2023-05-10T15:39:05;22.40;60.70
25732;DHT22;13585;50.864;4.406;2023-05-10T15:41:30;22.50;60.70
25732;DHT22;13585;50.864;4.406;2023-05-10T15:43:57;22.40;60.60
25732;DHT22;13585;50.864;4.406;2023-05-10T15:46:25;22.50;60.70
25732;DHT22;13585;50.864;4.406;2023-05-10T15:48:51;22.50;60.70
25732;DHT22;13585;50.864;4.406;2023-05-10T15:51:17;22.50;60.60
25732;DHT22;13585;50.864;4.406;2023-05-10T15:53:44;22.50;60.60
25732;DHT22;13585;50.864;4.406;2023-05-10T15:56:10;22.50;60.70
25732;DHT22;13585;50.864;4.406;2023-05-10T15:58:36;22.50;60.60